createdAt,value
2023-12-09T00:00:28.376Z,28.30
2023-12-09T00:02:54.917Z,19.70
2023-12-09T00:05:21.532Z,23.45
2023-12-09T00:07:48.140Z,24.88
2023-12-09T00:10:14.798Z,25.73
2023-12-09T00:12:41.307Z,29.50
2023-12-09T00:15:08.106Z,25.38
2023-12-09T00:17:35.238Z,24.58
2023-12-09T00:20:01.916Z,25.08
2023-12-09T00:22:28.746Z,24.90
2023-12-09T00:24:55.452Z,31.27
2023-12-09T00:27:22.050Z,20.45
2023-12-09T00:29:48.753Z,24.27
2023-12-09T00:32:15.413Z,27.30
2023-12-09T00:34:41.988Z,22.85
2023-12-09T00:37:09.089Z,27.90
2023-12-09T00:39:35.665Z,22.27
2023-12-09T00:42:02.259Z,18.65
2023-12-09T00:44:28.778Z,25.20
2023-12-09T00:46:55.262Z,26.30
2023-12-09T00:49:21.883Z,24.98
2023-12-09T00:51:48.560Z,30.40
2023-12-09T00:54:15.061Z,26.80
2023-12-09T00:56:41.636Z,33.38
2023-12-09T00:59:08.500Z,24.83
2023-12-09T01:01:35.497Z,28.20
2023-12-09T01:04:02.847Z,27.88
2023-12-09T01:06:30.387Z,26.63
2023-12-09T01:08:57.161Z,21.58
2023-12-09T01:11:25.207Z,21.83
2023-12-09T01:13:51.802Z,28.55
2023-12-09T01:16:18.416Z,20.70
2023-12-09T01:18:44.989Z,23.27
2023-12-09T01:21:11.637Z,33.00
2023-12-09T01:23:39.670Z,20.73
2023-12-09T01:26:08.128Z,22.55
2023-12-09T01:28:34.794Z,19.15
2023-12-09T01:31:01.272Z,27.75
2023-12-09T01:33:27.891Z,20.33
2023-12-09T01:35:54.574Z,25.60
2023-12-09T01:38:21.164Z,23.40
2023-12-09T01:40:54.804Z,18.80
2023-12-09T01:43:22.321Z,17.33
2023-12-09T01:45:52.285Z,23.83
2023-12-09T01:48:20.444Z,16.40
2023-12-09T01:50:47.586Z,19.35
2023-12-09T01:53:14.264Z,19.40
2023-12-09T01:55:42.179Z,16.63
2023-12-09T01:58:10.131Z,17.63
2023-12-09T02:00:40.054Z,16.52
2023-12-09T02:03:07.074Z,28.20
2023-12-09T02:05:33.762Z,17.38
2023-12-09T02:08:00.232Z,22.52
2023-12-09T02:10:27.680Z,21.48
2023-12-09T02:13:07.886Z,22.70
2023-12-09T02:15:42.584Z,25.38
2023-12-09T02:18:09.567Z,18.38
2023-12-09T02:20:36.160Z,19.42
2023-12-09T02:23:06.283Z,25.23
2023-12-09T02:25:33.788Z,21.45
2023-12-09T02:28:05.536Z,21.08
2023-12-09T02:31:00.477Z,14.23
2023-12-09T02:33:27.749Z,17.95
2023-12-09T02:35:56.444Z,22.98
2023-12-09T02:38:24.291Z,20.65
2023-12-09T02:40:51.891Z,20.85
2023-12-09T02:43:18.822Z,26.13
2023-12-09T02:45:49.408Z,20.80
2023-12-09T02:48:16.079Z,19.25
2023-12-09T02:50:42.707Z,23.90
2023-12-09T02:53:09.231Z,17.65
2023-12-09T02:55:35.752Z,21.17
2023-12-09T02:58:02.197Z,19.33
2023-12-09T03:00:28.906Z,25.90
2023-12-09T03:02:55.457Z,24.35
2023-12-09T03:05:22.008Z,17.00
2023-12-09T03:07:48.577Z,28.45
2023-12-09T03:10:15.145Z,21.80
2023-12-09T03:12:41.687Z,24.58
2023-12-09T03:15:09.065Z,26.23
2023-12-09T03:17:36.075Z,22.90
2023-12-09T03:20:04.200Z,27.77
2023-12-09T03:22:30.851Z,17.83
2023-12-09T03:24:57.415Z,29.52
2023-12-09T03:27:24.011Z,22.08
2023-12-09T03:29:50.559Z,26.83
2023-12-09T03:32:17.102Z,24.40
2023-12-09T03:34:46.845Z,24.10
2023-12-09T03:37:13.413Z,24.33
2023-12-09T03:39:39.919Z,16.67
2023-12-09T03:42:06.489Z,24.00
2023-12-09T03:44:33.112Z,21.85
2023-12-09T03:47:00.747Z,17.08
2023-12-09T03:49:29.602Z,18.63
2023-12-09T03:51:56.175Z,20.73
2023-12-09T03:54:22.718Z,22.77
2023-12-09T03:56:49.801Z,20.67
2023-12-09T03:59:16.353Z,22.75
2023-12-09T04:01:50.038Z,26.33
2023-12-09T04:04:17.274Z,23.67
2023-12-09T04:06:43.810Z,27.05
2023-12-09T04:09:12.971Z,20.83
2023-12-09T04:11:39.753Z,30.13
2023-12-09T04:14:06.525Z,22.05
2023-12-09T04:16:33.083Z,17.90
2023-12-09T04:18:59.801Z,25.95
2023-12-09T04:21:26.510Z,19.65
2023-12-09T04:23:53.139Z,29.50
2023-12-09T04:26:20.185Z,21.27
2023-12-09T04:28:47.762Z,17.95
2023-12-09T04:31:14.289Z,23.00
2023-12-09T04:33:41.760Z,17.20
2023-12-09T04:36:08.818Z,21.90
2023-12-09T04:38:35.318Z,26.33
2023-12-09T04:41:02.642Z,23.27
2023-12-09T04:43:29.320Z,15.98
2023-12-09T04:45:55.931Z,19.63
2023-12-09T04:48:22.686Z,16.52
2023-12-09T04:50:49.641Z,25.77
2023-12-09T04:53:16.219Z,16.13
2023-12-09T04:55:42.727Z,15.88
2023-12-09T04:58:09.217Z,19.15
2023-12-09T05:00:35.818Z,18.40
2023-12-09T05:03:02.389Z,20.98
2023-12-09T05:05:29.119Z,25.67
2023-12-09T05:07:55.655Z,18.33
2023-12-09T05:10:22.250Z,17.63
2023-12-09T05:12:49.386Z,18.27
2023-12-09T05:15:16.181Z,20.13
2023-12-09T05:17:42.901Z,27.38
2023-12-09T05:20:11.101Z,24.50
2023-12-09T05:22:38.251Z,20.50
2023-12-09T05:25:06.043Z,29.15
2023-12-09T05:27:33.102Z,24.38
2023-12-09T05:29:59.677Z,19.20
2023-12-09T05:32:26.480Z,14.30
2023-12-09T05:34:53.122Z,24.80
2023-12-09T05:37:19.862Z,17.52
2023-12-09T05:39:46.513Z,18.52
2023-12-09T05:42:13.018Z,18.27
2023-12-09T05:44:39.610Z,19.63
2023-12-09T05:47:06.233Z,19.63
2023-12-09T05:49:32.820Z,21.52
2023-12-09T05:51:59.378Z,18.33
2023-12-09T05:54:25.900Z,27.25
2023-12-09T05:56:52.393Z,28.33
2023-12-09T05:59:18.925Z,22.65
2023-12-09T06:01:45.435Z,18.17
2023-12-09T06:04:12.000Z,27.88
2023-12-09T06:06:38.573Z,21.75
2023-12-09T06:09:05.936Z,21.08
2023-12-09T06:11:32.747Z,23.48
2023-12-09T06:13:59.390Z,18.77
2023-12-09T06:16:26.002Z,25.55
2023-12-09T06:18:52.869Z,24.85
2023-12-09T06:21:23.480Z,16.75
2023-12-09T06:23:50.903Z,17.73
2023-12-09T06:26:18.093Z,20.35
2023-12-09T06:28:44.674Z,19.95
2023-12-09T06:31:14.096Z,14.75
2023-12-09T06:33:40.842Z,25.00
2023-12-09T06:36:07.862Z,18.45
2023-12-09T06:38:35.528Z,22.38
2023-12-09T06:41:02.071Z,22.95
2023-12-09T06:43:28.650Z,13.52
2023-12-09T06:45:55.180Z,13.18
2023-12-09T06:48:21.907Z,14.27
2023-12-09T06:50:48.418Z,18.88
2023-12-09T06:53:15.032Z,15.35
2023-12-09T06:55:41.982Z,17.00
2023-12-09T06:58:08.796Z,21.88
2023-12-09T07:00:35.402Z,14.20
2023-12-09T07:03:02.409Z,19.67
2023-12-09T07:05:29.557Z,16.33
2023-12-09T07:07:56.378Z,27.88
2023-12-09T07:10:22.839Z,21.35
2023-12-09T07:12:49.694Z,26.20
2023-12-09T07:15:16.835Z,20.23
2023-12-09T07:17:43.679Z,12.23
2023-12-09T07:20:11.149Z,19.30
2023-12-09T07:22:37.749Z,13.75
2023-12-09T07:25:04.451Z,27.48
2023-12-09T07:27:31.105Z,12.30
2023-12-09T07:29:57.648Z,20.05
2023-12-09T07:32:24.289Z,16.52
2023-12-09T07:34:53.731Z,19.90
2023-12-09T07:39:49.756Z,13.35
2023-12-09T07:42:16.361Z,16.52
2023-12-09T07:44:42.916Z,16.90
2023-12-09T07:47:09.373Z,19.42
2023-12-09T07:49:36.007Z,15.57
2023-12-09T07:52:02.735Z,15.18
2023-12-09T07:54:29.300Z,26.70
2023-12-09T07:56:55.798Z,14.43
2023-12-09T07:59:22.408Z,16.00
2023-12-09T08:01:48.952Z,15.00
2023-12-09T08:04:16.020Z,21.95
2023-12-09T08:06:42.603Z,20.13
2023-12-09T08:09:10.572Z,17.70
2023-12-09T08:11:37.123Z,20.75
2023-12-09T08:14:03.566Z,13.93
2023-12-09T08:16:30.071Z,12.05
2023-12-09T08:18:56.724Z,15.10
2023-12-09T08:21:25.380Z,10.50
2023-12-09T08:23:52.003Z,20.10
2023-12-09T08:26:19.325Z,11.90
2023-12-09T08:28:46.474Z,13.10
2023-12-09T08:31:13.048Z,12.15
2023-12-09T08:33:40.754Z,12.45
2023-12-09T08:36:08.175Z,12.35
2023-12-09T08:38:34.831Z,13.63
2023-12-09T08:41:01.330Z,19.80
2023-12-09T08:43:27.863Z,13.80
2023-12-09T08:45:54.435Z,12.15
2023-12-09T08:48:21.275Z,12.30
2023-12-09T08:50:47.886Z,11.35
2023-12-09T08:53:14.369Z,14.38
2023-12-09T08:55:40.831Z,16.50
2023-12-09T08:58:07.344Z,13.43
2023-12-09T09:00:33.903Z,11.70
2023-12-09T09:03:00.883Z,9.93
2023-12-09T09:05:27.394Z,14.32
2023-12-09T09:07:54.008Z,17.48
2023-12-09T09:10:20.680Z,11.48
2023-12-09T09:12:48.322Z,8.68
2023-12-09T09:15:16.751Z,12.82
2023-12-09T09:17:43.746Z,11.05
2023-12-09T09:20:11.552Z,10.48
2023-12-09T09:22:38.668Z,12.05
2023-12-09T09:25:05.695Z,14.15
2023-12-09T09:27:32.426Z,18.48
2023-12-09T09:29:59.091Z,15.10
2023-12-09T09:32:25.844Z,7.32
2023-12-09T09:34:52.828Z,8.95
2023-12-09T09:37:19.466Z,13.45
2023-12-09T09:39:46.159Z,11.82
2023-12-09T09:42:31.120Z,16.77
2023-12-09T09:45:15.842Z,12.35
2023-12-09T09:47:44.184Z,6.93
2023-12-09T09:50:11.698Z,17.50
2023-12-09T09:52:41.512Z,9.80
2023-12-09T09:55:09.146Z,15.38
2023-12-09T09:57:36.057Z,5.30
2023-12-09T10:00:03.020Z,12.52
2023-12-09T10:02:37.955Z,13.55
2023-12-09T10:05:04.695Z,10.38
2023-12-09T10:07:31.708Z,12.15
2023-12-09T10:09:59.070Z,12.18
2023-12-09T10:12:26.101Z,16.42
2023-12-09T10:14:53.399Z,16.92
2023-12-09T10:17:20.017Z,11.93
2023-12-09T10:19:46.624Z,7.38
2023-12-09T10:22:13.244Z,19.70
2023-12-09T10:24:45.914Z,9.60
2023-12-09T10:27:15.597Z,7.30
2023-12-09T10:29:44.802Z,6.75
2023-12-09T10:32:13.387Z,8.10
2023-12-09T10:34:43.759Z,10.80
2023-12-09T10:37:11.134Z,7.88
2023-12-09T10:39:37.812Z,11.02
2023-12-09T10:42:07.445Z,7.72
2023-12-09T10:44:34.805Z,12.27
2023-12-09T10:47:01.314Z,12.70
2023-12-09T10:49:28.056Z,16.40
2023-12-09T10:51:54.800Z,11.27
2023-12-09T10:54:21.462Z,9.40
2023-12-09T10:56:49.202Z,8.50
2023-12-09T10:59:18.484Z,10.57
2023-12-09T11:01:48.740Z,13.50
2023-12-09T11:04:16.277Z,6.68
2023-12-09T11:06:46.576Z,9.90
2023-12-09T11:09:15.703Z,5.72
2023-12-09T11:11:43.025Z,12.30
2023-12-09T11:14:12.871Z,6.40
2023-12-09T11:16:43.748Z,5.75
2023-12-09T11:19:18.012Z,8.67
2023-12-09T11:21:48.639Z,6.25
2023-12-09T11:24:18.236Z,4.93
2023-12-09T11:26:47.168Z,6.68
2023-12-09T11:29:16.215Z,5.32
2023-12-09T11:31:47.821Z,3.95
2023-12-09T11:34:15.844Z,7.85
2023-12-09T11:36:43.722Z,9.85
2023-12-09T11:39:21.686Z,14.35
2023-12-09T11:41:49.457Z,9.48
2023-12-09T11:44:16.297Z,6.10
2023-12-09T11:46:43.858Z,4.68
2023-12-09T11:49:10.715Z,7.88
2023-12-09T11:51:38.963Z,8.50
2023-12-09T11:54:08.773Z,8.68
2023-12-09T11:56:36.437Z,10.32
2023-12-09T11:59:03.335Z,12.60
2023-12-09T12:01:31.534Z,4.55
2023-12-09T12:03:58.336Z,3.97
2023-12-09T12:06:25.361Z,8.85
2023-12-09T12:08:53.477Z,5.22
2023-12-09T12:11:22.716Z,6.78
2023-12-09T12:13:50.058Z,4.25
2023-12-09T12:16:17.403Z,3.13
2023-12-09T12:18:45.364Z,11.07
2023-12-09T12:21:12.204Z,3.75
2023-12-09T12:23:40.454Z,7.85
2023-12-09T12:26:07.267Z,5.93
2023-12-09T12:28:33.943Z,7.10
2023-12-09T12:31:01.156Z,3.40
2023-12-09T12:33:32.365Z,6.30
2023-12-09T12:36:00.089Z,4.20
2023-12-09T12:38:27.685Z,4.53
2023-12-09T12:40:55.451Z,5.30
2023-12-09T12:43:22.721Z,8.90
2023-12-09T12:45:51.351Z,4.13
2023-12-09T12:48:18.571Z,4.13
2023-12-09T12:50:49.655Z,5.00
2023-12-09T12:53:18.885Z,4.07
2023-12-09T12:55:46.084Z,4.63
2023-12-09T12:58:13.031Z,5.13
2023-12-09T13:00:40.616Z,6.05
2023-12-09T13:03:08.428Z,5.53
2023-12-09T13:05:36.070Z,4.32
2023-12-09T13:08:02.996Z,4.78
2023-12-09T13:10:29.716Z,4.18
2023-12-09T13:12:56.368Z,8.25
2023-12-09T13:15:23.793Z,1.35
2023-12-09T13:17:50.767Z,3.75
2023-12-09T13:20:17.775Z,1.65
2023-12-09T13:22:46.844Z,2.30
2023-12-09T13:25:15.112Z,1.98
2023-12-09T13:27:43.051Z,10.93
2023-12-09T13:30:10.788Z,4.90
2023-12-09T13:32:38.586Z,3.90
2023-12-09T13:35:06.744Z,1.20
2023-12-09T13:37:34.015Z,2.13
2023-12-09T13:40:01.861Z,1.50
2023-12-09T13:42:29.451Z,2.88
2023-12-09T13:44:56.299Z,1.80
2023-12-09T13:47:23.545Z,1.60
2023-12-09T13:49:50.406Z,1.90
2023-12-09T13:52:17.661Z,2.10
2023-12-09T13:54:44.599Z,4.07
2023-12-09T13:57:11.642Z,1.55
2023-12-09T13:59:38.391Z,2.28
2023-12-09T14:02:06.745Z,0.85
2023-12-09T14:04:33.709Z,1.50
2023-12-09T14:07:00.521Z,2.00
2023-12-09T14:09:28.345Z,0.70
2023-12-09T14:11:55.141Z,0.80
2023-12-09T14:14:21.829Z,2.75
2023-12-09T14:16:48.524Z,1.27
2023-12-09T14:19:15.581Z,0.75
2023-12-09T14:21:42.370Z,1.42
2023-12-09T14:24:09.935Z,1.27
2023-12-09T14:26:37.717Z,1.10
2023-12-09T14:29:04.310Z,7.05
2023-12-09T14:31:30.958Z,1.33
2023-12-09T14:33:58.020Z,0.63
2023-12-09T14:36:25.180Z,1.08
2023-12-09T14:38:52.452Z,3.20
2023-12-09T14:41:19.410Z,1.55
2023-12-09T14:43:47.218Z,1.95
2023-12-09T14:46:15.270Z,1.35
2023-12-09T14:48:43.340Z,1.45
2023-12-09T14:51:10.283Z,2.60
2023-12-09T14:53:36.896Z,2.25
2023-12-09T14:56:03.845Z,1.17
2023-12-09T14:58:30.763Z,3.55
2023-12-09T15:00:57.529Z,1.40
2023-12-09T15:03:24.269Z,1.20
2023-12-09T15:05:51.063Z,1.35
2023-12-09T15:08:17.639Z,1.73
2023-12-09T15:10:44.276Z,2.72
2023-12-09T15:13:10.840Z,2.05
2023-12-09T15:15:37.521Z,2.58
2023-12-09T15:18:05.876Z,1.83
2023-12-09T15:20:33.404Z,1.63
2023-12-09T15:23:00.111Z,1.63
2023-12-09T15:25:26.924Z,3.85
2023-12-09T15:27:53.674Z,2.47
2023-12-09T15:30:20.620Z,4.50
2023-12-09T15:32:48.586Z,4.07
2023-12-09T15:35:15.441Z,1.50
2023-12-09T15:37:43.687Z,3.35
2023-12-09T15:40:12.204Z,0.93
2023-12-09T15:42:39.118Z,3.50
2023-12-09T15:45:06.492Z,1.98
2023-12-09T15:47:33.579Z,5.68
2023-12-09T15:50:00.464Z,1.98
2023-12-09T15:52:27.553Z,0.85
2023-12-09T15:54:54.515Z,1.38
2023-12-09T15:57:21.679Z,1.42
2023-12-09T15:59:49.250Z,1.60
2023-12-09T16:02:15.916Z,3.28
2023-12-09T16:04:42.606Z,1.20
2023-12-09T16:07:09.369Z,1.67
2023-12-09T16:09:40.955Z,3.05
2023-12-09T16:12:11.486Z,2.95
2023-12-09T16:14:38.170Z,2.10
2023-12-09T16:17:05.079Z,2.28
2023-12-09T16:19:31.823Z,3.38
2023-12-09T16:21:58.479Z,2.00
2023-12-09T16:24:28.575Z,1.60
2023-12-09T16:26:59.218Z,2.38
2023-12-09T16:29:25.788Z,1.30
2023-12-09T16:31:52.420Z,1.02
2023-12-09T16:34:19.096Z,1.67
2023-12-09T16:36:45.861Z,1.92
2023-12-09T16:39:14.091Z,3.60
2023-12-09T16:41:41.207Z,3.55
2023-12-09T16:44:10.591Z,3.30
2023-12-09T16:46:39.043Z,2.60
2023-12-09T16:49:06.038Z,2.53
2023-12-09T16:51:32.665Z,1.98
2023-12-09T16:53:59.280Z,2.47
2023-12-09T16:56:26.660Z,2.00
2023-12-09T16:58:53.471Z,2.72
2023-12-09T17:01:20.095Z,4.82
2023-12-09T17:03:47.379Z,3.38
2023-12-09T17:06:14.553Z,4.53
2023-12-09T17:08:41.398Z,2.95
2023-12-09T17:11:08.174Z,2.65
2023-12-09T17:13:34.834Z,2.17
2023-12-09T17:16:01.481Z,2.28
2023-12-09T17:18:28.324Z,2.30
2023-12-09T17:20:55.288Z,2.20
2023-12-09T17:23:21.969Z,2.92
2023-12-09T17:25:48.572Z,2.25
2023-12-09T17:28:15.139Z,3.50
2023-12-09T17:30:41.792Z,3.03
2023-12-09T17:33:09.214Z,2.80
2023-12-09T17:35:35.918Z,2.53
2023-12-09T17:38:02.596Z,3.50
2023-12-09T17:40:29.360Z,3.17
2023-12-09T17:42:56.188Z,2.92
2023-12-09T17:45:22.955Z,2.50
2023-12-09T17:47:49.712Z,2.45
2023-12-09T17:50:17.541Z,2.97
2023-12-09T17:52:44.351Z,4.20
2023-12-09T17:55:11.034Z,4.38
2023-12-09T17:57:37.838Z,5.00
2023-12-09T18:00:05.326Z,4.78
2023-12-09T18:02:34.376Z,5.05
2023-12-09T18:05:01.068Z,5.20
2023-12-09T18:07:27.811Z,6.18
2023-12-09T18:09:55.038Z,13.45
2023-12-09T18:12:21.686Z,5.50
2023-12-09T18:14:48.268Z,6.07
2023-12-09T18:17:14.875Z,5.75
2023-12-09T18:19:41.564Z,5.13
2023-12-09T18:22:08.218Z,6.65
2023-12-09T18:24:34.946Z,6.85
2023-12-09T18:27:01.725Z,5.90
2023-12-09T18:29:28.816Z,5.82
2023-12-09T18:31:55.456Z,9.02
2023-12-09T18:34:23.383Z,9.68
2023-12-09T18:36:50.594Z,9.60
2023-12-09T18:39:20.794Z,11.23
2023-12-09T18:41:47.497Z,8.27
2023-12-09T18:44:14.152Z,8.98
2023-12-09T18:46:41.059Z,13.50
2023-12-09T18:49:09.680Z,11.40
2023-12-09T18:51:36.407Z,14.05
2023-12-09T18:54:03.055Z,13.52
2023-12-09T18:56:29.678Z,17.85
2023-12-09T18:58:56.306Z,15.18
2023-12-09T19:01:23.264Z,24.70
2023-12-09T19:03:50.162Z,21.23
2023-12-09T19:06:16.910Z,15.68
2023-12-09T19:08:43.638Z,18.73
2023-12-09T19:11:10.261Z,17.58
2023-12-09T19:13:36.970Z,25.92
2023-12-09T19:16:04.084Z,16.70
2023-12-09T19:18:30.851Z,35.33
2023-12-09T19:20:57.572Z,22.73
2023-12-09T19:23:24.167Z,21.52
2023-12-09T19:25:50.896Z,12.27
2023-12-09T19:28:17.560Z,24.00
2023-12-09T19:30:44.193Z,20.38
2023-12-09T19:33:10.918Z,22.80
2023-12-09T19:35:37.580Z,21.30
2023-12-09T19:38:04.480Z,26.92
2023-12-09T19:40:33.547Z,25.92
2023-12-09T19:43:00.263Z,18.83
2023-12-09T19:45:27.097Z,22.10
2023-12-09T19:47:56.270Z,20.25
2023-12-09T19:50:24.924Z,20.75
2023-12-09T19:52:52.106Z,26.90
2023-12-09T19:55:18.740Z,26.70
2023-12-09T19:57:45.689Z,19.25
2023-12-09T20:00:15.744Z,22.70
2023-12-09T20:02:45.247Z,28.58
2023-12-09T20:05:12.280Z,26.10
2023-12-09T20:07:39.118Z,20.73
2023-12-09T20:10:06.408Z,17.13
2023-12-09T20:12:33.142Z,24.08
2023-12-09T20:14:59.822Z,26.77
2023-12-09T20:17:26.689Z,20.35
2023-12-09T20:19:53.428Z,23.67
2023-12-09T20:22:21.330Z,22.52
2023-12-09T20:24:48.132Z,21.98
2023-12-09T20:27:14.962Z,15.68
2023-12-09T20:29:41.911Z,19.67
2023-12-09T20:32:08.541Z,24.55
2023-12-09T20:34:35.238Z,12.45
2023-12-09T20:37:02.603Z,16.40
2023-12-09T20:39:29.359Z,22.77
2023-12-09T20:41:56.021Z,20.85
2023-12-09T20:44:22.670Z,17.15
2023-12-09T20:46:49.336Z,23.70
2023-12-09T20:49:18.091Z,14.57
2023-12-09T20:51:45.959Z,22.45
2023-12-09T20:54:13.107Z,20.27
2023-12-09T20:56:39.828Z,17.98
2023-12-09T20:59:09.110Z,18.83
2023-12-09T21:01:54.974Z,15.98
2023-12-09T21:04:22.872Z,16.77
2023-12-09T21:06:50.086Z,12.63
2023-12-09T21:09:16.740Z,17.27
2023-12-09T21:11:43.871Z,25.35
2023-12-09T21:14:10.448Z,14.02
2023-12-09T21:16:37.075Z,12.18
2023-12-09T21:19:03.941Z,16.30
2023-12-09T21:21:34.545Z,24.65
2023-12-09T21:24:01.363Z,18.50
2023-12-09T21:26:28.380Z,15.63
2023-12-09T21:28:55.061Z,18.95
2023-12-09T21:31:21.686Z,16.20
2023-12-09T21:33:48.456Z,19.52
2023-12-09T21:36:16.335Z,18.40
2023-12-09T21:38:43.891Z,16.25
2023-12-09T21:41:19.314Z,20.17
2023-12-09T21:43:47.254Z,23.38
2023-12-09T21:46:13.855Z,28.05
2023-12-09T21:48:40.583Z,21.40
2023-12-09T21:51:07.526Z,20.92
2023-12-09T21:53:34.054Z,12.80
2023-12-09T21:56:01.016Z,16.17
2023-12-09T21:58:27.967Z,21.48
2023-12-09T22:00:54.747Z,21.52
2023-12-09T22:03:21.537Z,24.00
2023-12-09T22:05:48.160Z,16.98
2023-12-09T22:08:14.801Z,18.05
2023-12-09T22:10:41.411Z,22.38
2023-12-09T22:13:08.534Z,21.67
2023-12-09T22:15:37.413Z,23.90
2023-12-09T22:18:04.528Z,15.02
2023-12-09T22:20:31.978Z,19.08
2023-12-09T22:22:58.805Z,19.10
2023-12-09T22:25:25.660Z,18.65
2023-12-09T22:27:52.258Z,18.10
2023-12-09T22:30:19.242Z,19.73
2023-12-09T22:32:45.884Z,17.98
2023-12-09T22:35:12.550Z,18.85
2023-12-09T22:37:40.694Z,19.38
2023-12-09T22:40:09.175Z,16.88
2023-12-09T22:42:36.934Z,13.00
2023-12-09T22:45:05.477Z,20.52
2023-12-09T22:47:33.013Z,23.55
2023-12-09T22:49:59.728Z,24.13
2023-12-09T22:52:26.492Z,27.45
2023-12-09T22:54:53.819Z,22.65
2023-12-09T22:57:20.585Z,17.42
2023-12-09T22:59:47.348Z,25.55
2023-12-09T23:02:13.948Z,14.63
2023-12-09T23:04:40.992Z,18.80
2023-12-09T23:07:07.888Z,18.38
2023-12-09T23:09:35.185Z,21.15
2023-12-09T23:12:01.986Z,18.35
2023-12-09T23:14:28.683Z,18.90
2023-12-09T23:16:56.616Z,19.35
2023-12-09T23:19:24.239Z,21.83
2023-12-09T23:21:51.059Z,22.42
2023-12-09T23:24:17.862Z,22.35
2023-12-09T23:26:44.524Z,16.70
2023-12-09T23:29:11.190Z,23.10
2023-12-09T23:31:41.713Z,23.63
2023-12-09T23:34:10.379Z,23.55
2023-12-09T23:36:37.499Z,20.83
2023-12-09T23:39:04.217Z,30.67
2023-12-09T23:41:30.837Z,21.55
2023-12-09T23:43:57.433Z,19.20
2023-12-09T23:46:24.147Z,24.55
2023-12-09T23:48:50.792Z,19.42
2023-12-09T23:51:17.493Z,25.38
2023-12-09T23:53:44.464Z,25.40
2023-12-09T23:56:11.093Z,21.45
2023-12-09T23:58:37.777Z,25.60
